Time;durP1;ratioP1;P1;durP2;ratioP2;P2;SDS_P1;SDS_P2;PMS_P1;PMS_P2;Temp;Humidity;BMP_temperature;BMP_pressure;BME280_temperature;BME280_humidity;BME280_pressure;Samples;Min_cycle;Max_cycle;Signal;HPM_P1;HPM_P2
2021/04/01 00:00:13;;;;;;;14.70;6.80;;;13.40;65.60;;;;;;5046832;28;20375;-84
2021/04/01 00:02:39;;;;;;;11.68;5.80;;;13.30;65.50;;;;;;5045952;28;20056;-83
2021/04/01 00:05:06;;;;;;;12.73;6.18;;;13.30;65.70;;;;;;5046897;28;20030;-83
2021/04/01 00:07:32;;;;;;;13.38;7.03;;;13.20;66.20;;;;;;5045307;28;20447;-84
2021/04/01 00:09:59;;;;;;;17.67;6.95;;;13.20;66.40;;;;;;5046639;28;20101;-84
2021/04/01 00:12:25;;;;;;;14.07;6.78;;;13.20;66.60;;;;;;5047538;28;20546;-84
2021/04/01 00:14:50;;;;;;;13.48;6.65;;;13.20;66.30;;;;;;5050147;28;20052;-84
2021/04/01 00:17:17;;;;;;;15.13;6.53;;;13.20;67.10;;;;;;5047239;28;20056;-84
2021/04/01 00:19:42;;;;;;;18.13;7.13;;;13.10;66.90;;;;;;5045563;28;20025;-84
2021/04/01 00:22:08;;;;;;;16.55;6.28;;;13.10;67.30;;;;;;5039821;28;20045;-84
2021/04/01 00:24:34;;;;;;;18.23;6.40;;;13.00;67.50;;;;;;5044695;28;20061;-84
2021/04/01 00:26:59;;;;;;;17.75;6.40;;;13.00;67.30;;;;;;5044824;28;20112;-84
2021/04/01 00:29:25;;;;;;;15.73;6.18;;;13.00;67.10;;;;;;5034955;28;20032;-84
2021/04/01 00:31:51;;;;;;;12.52;6.13;;;13.00;67.00;;;;;;5044268;28;20021;-84
2021/04/01 00:34:16;;;;;;;15.25;6.35;;;12.90;67.40;;;;;;5043942;28;20128;-84
2021/04/01 00:36:42;;;;;;;14.50;7.50;;;12.90;68.00;;;;;;5040723;28;20025;-84
2021/04/01 00:39:08;;;;;;;14.88;7.05;;;12.90;68.60;;;;;;5042551;28;20029;-83
2021/04/01 00:41:33;;;;;;;15.10;6.40;;;12.80;68.80;;;;;;5035954;28;20501;-85
2021/04/01 00:44:08;;;;;;;12.35;6.45;;;12.80;68.90;;;;;;5042700;28;20055;-84
2021/04/01 00:46:35;;;;;;;14.77;6.10;;;12.80;68.80;;;;;;5036257;28;20474;-84
2021/04/01 00:49:00;;;;;;;16.73;5.97;;;12.70;68.60;;;;;;5044875;28;20081;-84
2021/04/01 00:51:26;;;;;;;18.08;6.15;;;12.70;68.40;;;;;;5040404;28;20037;-83
2021/04/01 00:53:52;;;;;;;14.70;6.05;;;12.70;68.60;;;;;;5039891;28;20033;-84
2021/04/01 00:56:19;;;;;;;15.38;6.10;;;12.70;69.20;;;;;;5040532;28;20079;-84
2021/04/01 00:58:48;;;;;;;14.18;6.05;;;12.60;69.80;;;;;;5042877;28;20082;-84
2021/04/01 01:01:39;;;;;;;14.48;5.65;;;12.60;70.30;;;;;;5042677;28;20033;-84
2021/04/01 01:04:07;;;;;;;15.37;6.20;;;12.60;70.60;;;;;;5042821;28;20037;-84
2021/04/01 01:06:33;;;;;;;18.27;6.18;;;12.50;71.20;;;;;;5044787;28;20025;-84
2021/04/01 01:08:58;;;;;;;13.10;6.22;;;12.50;71.50;;;;;;5043267;28;20017;-83
2021/04/01 01:11:24;;;;;;;18.00;6.63;;;12.50;72.10;;;;;;5043847;28;20510;-84
2021/04/01 01:13:50;;;;;;;14.40;6.30;;;12.40;72.10;;;;;;5043918;28;20029;-84
2021/04/01 01:16:16;;;;;;;14.00;6.03;;;12.30;72.90;;;;;;5045069;28;20117;-84
2021/04/01 01:18:41;;;;;;;13.48;6.50;;;12.40;73.50;;;;;;5043437;28;20049;-83
2021/04/01 01:21:08;;;;;;;14.77;6.22;;;12.40;73.50;;;;;;5038962;28;20022;-84
2021/04/01 01:23:33;;;;;;;12.68;6.15;;;12.40;73.90;;;;;;5038086;28;20493;-84
2021/04/01 01:26:00;;;;;;;14.60;6.10;;;12.30;74.10;;;;;;5044296;28;20017;-84
2021/04/01 01:28:25;;;;;;;14.25;6.53;;;12.30;74.00;;;;;;5041698;28;20119;-83
2021/04/01 01:30:52;;;;;;;17.17;6.75;;;12.20;74.00;;;;;;5043562;28;20021;-83
2021/04/01 01:33:21;;;;;;;13.27;6.10;;;12.20;74.30;;;;;;5042809;28;20014;-84
2021/04/01 01:35:47;;;;;;;12.93;6.18;;;12.20;74.90;;;;;;5045058;28;20024;-83
2021/04/01 01:38:14;;;;;;;13.15;6.28;;;12.10;75.40;;;;;;5044156;28;20082;-83
2021/04/01 01:40:43;;;;;;;13.52;6.07;;;12.10;75.40;;;;;;5042299;28;20026;-84
2021/04/01 01:43:14;;;;;;;12.48;6.20;;;12.00;75.40;;;;;;5042670;28;20025;-83
2021/04/01 01:45:41;;;;;;;19.35;6.00;;;12.00;75.80;;;;;;5040610;28;20033;-84
2021/04/01 01:48:10;;;;;;;10.30;5.05;;;12.00;76.40;;;;;;5041329;28;20052;-84
2021/04/01 01:50:38;;;;;;;12.52;6.00;;;12.00;76.70;;;;;;5035837;28;20084;-84
2021/04/01 01:53:05;;;;;;;12.52;5.88;;;11.90;77.00;;;;;;5046740;28;20029;-84
2021/04/01 01:55:32;;;;;;;13.82;6.28;;;11.90;77.40;;;;;;5045643;28;20033;-84
2021/04/01 01:57:58;;;;;;;14.27;6.05;;;11.90;77.80;;;;;;5044351;28;20088;-83
2021/04/01 02:00:28;;;;;;;11.73;5.45;;;11.90;78.10;;;;;;5046759;28;20033;-84
2021/04/01 02:03:02;;;;;;;12.48;5.30;;;11.80;78.60;;;;;;5048279;28;20040;-83
2021/04/01 02:05:31;;;;;;;15.48;6.25;;;11.80;79.10;;;;;;5047838;28;20042;-84
2021/04/01 02:07:57;;;;;;;13.73;6.15;;;11.80;79.30;;;;;;5045119;28;20028;-84
2021/04/01 02:10:36;;;;;;;16.42;6.63;;;11.80;79.60;;;;;;5045331;28;20033;-84
2021/04/01 02:13:03;;;;;;;12.07;5.72;;;11.70;80.10;;;;;;5045037;28;20028;-85
2021/04/01 02:15:37;;;;;;;12.18;6.50;;;11.70;80.60;;;;;;5042891;28;20026;-85
2021/04/01 02:18:03;;;;;;;10.43;5.70;;;11.70;80.80;;;;;;5044108;28;20034;-85
2021/04/01 02:20:29;;;;;;;12.95;5.70;;;11.70;81.30;;;;;;5046472;28;20037;-84
2021/04/01 02:22:55;;;;;;;10.93;5.78;;;11.60;81.60;;;;;;5045553;28;20063;-85
2021/04/01 02:25:20;;;;;;;14.52;5.43;;;11.60;81.80;;;;;;5046141;28;20041;-84
2021/04/01 02:27:46;;;;;;;12.48;5.75;;;11.60;82.20;;;;;;5044803;28;20063;-84
2021/04/01 02:30:13;;;;;;;15.55;6.00;;;11.60;82.40;;;;;;5044338;28;20060;-84
2021/04/01 02:32:39;;;;;;;12.45;5.50;;;11.60;83.20;;;;;;5018678;28;20026;-84
2021/04/01 02:35:05;;;;;;;14.65;5.72;;;11.50;83.50;;;;;;5040341;28;20040;-84
2021/04/01 02:37:31;;;;;;;12.65;5.13;;;11.50;83.90;;;;;;5044593;28;20505;-84
2021/04/01 02:39:56;;;;;;;10.10;4.90;;;11.40;84.70;;;;;;5039274;28;20029;-83
2021/04/01 02:42:22;;;;;;;13.45;6.00;;;11.40;84.80;;;;;;5043515;28;20506;-84
2021/04/01 02:44:47;;;;;;;10.10;5.32;;;11.40;85.10;;;;;;5039351;28;20032;-84
2021/04/01 02:47:13;;;;;;;12.05;5.38;;;11.40;86.00;;;;;;5034488;28;20034;-85
2021/04/01 02:49:39;;;;;;;12.50;5.95;;;11.30;86.60;;;;;;5034499;28;20045;-84
2021/04/01 02:52:05;;;;;;;14.13;5.50;;;11.30;86.50;;;;;;5040821;28;20025;-84
2021/04/01 02:54:30;;;;;;;12.02;5.78;;;11.30;87.00;;;;;;5040868;28;20013;-84
2021/04/01 02:56:56;;;;;;;9.85;4.72;;;11.30;87.60;;;;;;5043845;28;20120;-85
2021/04/01 02:59:22;;;;;;;15.23;5.60;;;11.30;87.80;;;;;;5046796;28;20079;-84
2021/04/01 03:01:47;;;;;;;14.68;5.75;;;11.30;87.90;;;;;;5047366;28;20031;-84
2021/04/01 03:04:13;;;;;;;14.35;6.05;;;11.30;88.10;;;;;;5045988;28;20052;-84
2021/04/01 03:06:39;;;;;;;13.27;5.85;;;11.20;88.60;;;;;;5047641;28;20029;-85
2021/04/01 03:09:05;;;;;;;15.57;5.97;;;11.20;89.90;;;;;;5047079;28;20017;-85
2021/04/01 03:11:30;;;;;;;18.67;6.05;;;11.20;90.30;;;;;;5049021;28;20030;-84
2021/04/01 03:13:57;;;;;;;14.43;5.93;;;11.20;90.50;;;;;;5039319;28;20029;-85
2021/04/01 03:16:23;;;;;;;12.63;5.68;;;11.20;90.40;;;;;;5043846;28;20506;-84
2021/04/01 03:18:49;;;;;;;11.95;4.90;;;11.20;90.50;;;;;;5044954;28;20013;-85
2021/04/01 03:21:14;;;;;;;11.10;5.60;;;11.20;90.60;;;;;;5045059;28;20056;-85
2021/04/01 03:23:40;;;;;;;13.30;5.57;;;11.20;90.70;;;;;;5044937;28;20033;-84
2021/04/01 03:26:06;;;;;;;13.32;5.63;;;11.10;90.50;;;;;;5043066;28;20052;-84
2021/04/01 03:28:32;;;;;;;11.75;5.32;;;11.10;90.80;;;;;;5045509;28;20052;-84
2021/04/01 03:31:03;;;;;;;10.45;5.65;;;11.00;90.90;;;;;;5042150;28;20470;-84
2021/04/01 03:33:29;;;;;;;12.35;5.78;;;11.00;91.20;;;;;;5044214;28;20030;-84
2021/04/01 03:35:55;;;;;;;12.30;5.38;;;11.00;91.40;;;;;;5043632;28;20017;-84
2021/04/01 03:38:21;;;;;;;14.05;5.95;;;11.00;91.40;;;;;;5044327;28;20036;-85
2021/04/01 03:40:50;;;;;;;13.63;5.25;;;11.00;91.70;;;;;;5041104;28;20022;-84
2021/04/01 03:43:15;;;;;;;18.50;5.82;;;11.00;91.80;;;;;;5043157;28;20075;-84
2021/04/01 03:45:41;;;;;;;11.40;5.55;;;11.00;91.80;;;;;;5043910;28;20025;-84
2021/04/01 03:48:07;;;;;;;13.93;6.53;;;11.00;91.90;;;;;;5042603;28;20116;-83
2021/04/01 03:50:33;;;;;;;13.02;5.93;;;11.00;92.00;;;;;;5040263;28;20081;-84
2021/04/01 03:52:59;;;;;;;14.27;6.15;;;10.90;92.30;;;;;;5042249;28;20082;-83
2021/04/01 03:58:02;;;;;;;13.25;5.45;;;10.90;92.80;;;;;;5043414;28;20453;-83
2021/04/01 04:00:31;;;;;;;;;;;10.90;92.80;;;;;;5035054;28;20039;-83
2021/04/01 04:05:53;;;;;;;14.82;5.35;;;10.90;93.00;;;;;;5040030;28;20128;-82
2021/04/01 04:16:13;;;;;;;15.43;5.78;;;10.80;94.10;;;;;;5043621;28;20021;-84
2021/04/01 04:18:39;;;;;;;12.02;5.47;;;10.80;93.90;;;;;;5039018;28;20085;-83
2021/04/01 04:21:06;;;;;;;13.93;5.78;;;10.70;94.00;;;;;;5042690;28;20398;-84
2021/04/01 04:23:33;;;;;;;14.73;6.25;;;10.70;94.30;;;;;;5047281;23;20128;-85
2021/04/01 04:25:58;;;;;;;12.05;5.95;;;10.80;94.20;;;;;;5038073;28;20515;-84
2021/04/01 04:28:30;;;;;;;10.05;5.47;;;10.80;94.30;;;;;;5032631;28;20026;-85
2021/04/01 04:30:56;;;;;;;10.80;5.78;;;10.70;94.40;;;;;;5033360;28;20088;-85
2021/04/01 04:33:22;;;;;;;12.18;5.40;;;10.70;94.40;;;;;;5031598;28;20524;-85
2021/04/01 04:35:47;;;;;;;10.57;5.45;;;10.60;94.50;;;;;;5033944;28;20448;-84
2021/04/01 04:38:13;;;;;;;14.15;5.53;;;10.60;94.70;;;;;;5033987;28;20025;-85
2021/04/01 04:40:39;;;;;;;13.50;5.53;;;10.70;94.90;;;;;;5030249;28;20079;-84
2021/04/01 04:43:05;;;;;;;12.85;5.13;;;10.60;95.10;;;;;;5030326;28;20036;-85
2021/04/01 04:45:31;;;;;;;13.85;6.43;;;10.60;95.30;;;;;;5033632;28;20029;-84
2021/04/01 04:47:57;;;;;;;15.63;5.85;;;10.60;95.20;;;;;;5032511;28;20501;-85
2021/04/01 04:50:22;;;;;;;12.82;5.60;;;10.50;95.50;;;;;;5031574;28;20021;-84
2021/04/01 04:52:48;;;;;;;14.70;5.82;;;10.50;95.70;;;;;;5016603;28;20038;-85
2021/04/01 04:55:14;;;;;;;11.98;5.40;;;10.40;96.20;;;;;;5029169;28;20029;-84
2021/04/01 04:57:47;;;;;;;12.57;6.00;;;10.30;96.30;;;;;;5031851;28;20029;-85
2021/04/01 05:05:37;;;;;;;11.48;5.55;;;10.30;96.70;;;;;;5012687;28;20159;-84
2021/04/01 05:08:03;;;;;;;15.45;6.20;;;10.40;96.70;;;;;;5030304;28;20559;-85
2021/04/01 05:10:28;;;;;;;12.25;5.22;;;10.30;96.60;;;;;;5029473;28;20029;-84
2021/04/01 05:13:07;;;;;;;13.20;6.15;;;10.30;96.90;;;;;;5025505;28;20025;-84
2021/04/01 05:15:34;;;;;;;12.82;5.50;;;10.50;96.80;;;;;;5026851;28;20147;-85
2021/04/01 05:18:23;;;;;;;13.68;5.50;;;10.40;96.60;;;;;;5030181;28;20536;-85
2021/04/01 05:20:47;;;;;;;13.98;6.13;;;10.40;96.50;;;;;;5030105;28;20037;-85
2021/04/01 05:25:47;;;;;;;15.05;5.40;;;10.40;96.80;;;;;;5030166;28;20029;-85
2021/04/01 05:28:35;;;;;;;9.45;5.28;;;10.40;97.40;;;;;;5030785;28;20025;-85
2021/04/01 05:31:07;;;;;;;13.35;5.38;;;10.30;97.90;;;;;;5030145;28;20033;-86
2021/04/01 05:33:33;;;;;;;14.60;5.25;;;10.40;97.80;;;;;;5031868;28;20119;-84
2021/04/01 05:36:01;;;;;;;11.18;5.68;;;10.30;97.80;;;;;;5030883;28;20036;-84
2021/04/01 05:38:27;;;;;;;16.48;5.03;;;10.30;97.90;;;;;;5030724;28;20096;-85
2021/04/01 05:40:53;;;;;;;17.98;5.60;;;10.20;98.00;;;;;;5029190;28;20029;-84
2021/04/01 05:43:24;;;;;;;13.77;5.40;;;10.40;98.10;;;;;;5031679;28;20025;-84
2021/04/01 05:45:52;;;;;;;13.68;5.57;;;10.50;97.80;;;;;;5031502;28;20021;-85
2021/04/01 05:48:31;;;;;;;11.25;5.07;;;10.50;97.70;;;;;;5031567;28;20024;-84
2021/04/01 05:59:34;;;;;;;12.88;5.20;;;10.40;98.30;;;;;;5026892;28;20049;-84
2021/04/01 06:05:03;;;;;;;13.48;5.60;;;10.40;98.80;;;;;;5023220;28;20095;-84
2021/04/01 06:07:35;;;;;;;12.45;4.88;;;10.50;98.70;;;;;;5033113;28;20067;-85
2021/04/01 06:10:02;;;;;;;20.58;5.60;;;10.60;98.50;;;;;;5032326;28;20116;-85
2021/04/01 06:12:32;;;;;;;14.38;4.80;;;10.70;98.30;;;;;;5029462;28;20124;-84
2021/04/01 06:15:11;;;;;;;13.50;5.25;;;10.80;98.50;;;;;;5030222;28;20033;-84
2021/04/01 06:17:45;;;;;;;12.18;5.72;;;10.80;99.00;;;;;;5029885;28;20026;-84
2021/04/01 06:20:11;;;;;;;13.77;5.70;;;10.90;98.90;;;;;;5031299;28;20069;-85
2021/04/01 06:22:39;;;;;;;12.30;5.20;;;11.00;98.90;;;;;;5030751;28;20501;-85
2021/04/01 06:25:10;;;;;;;11.93;5.30;;;11.10;98.60;;;;;;5029595;28;20033;-84
2021/04/01 06:27:49;;;;;;;13.00;4.68;;;11.20;98.00;;;;;;5029688;28;20454;-85
2021/04/01 06:32:57;;;;;;;;;;;11.30;96.90;;;;;;5031341;28;20049;-85
2021/04/01 06:40:58;;;;;;;9.98;5.40;;;11.60;95.60;;;;;;5031687;28;20549;-85
2021/04/01 06:43:48;;;;;;;11.52;5.75;;;11.80;95.10;;;;;;5032970;28;20378;-85
2021/04/01 06:46:16;;;;;;;13.40;5.22;;;11.90;94.60;;;;;;5034403;28;20492;-85
2021/04/01 06:51:20;;;;;;;11.82;5.20;;;12.00;94.50;;;;;;5033552;28;20493;-85
2021/04/01 06:54:08;;;;;;;10.38;4.72;;;12.10;93.80;;;;;;5027783;28;20010;-84
2021/04/01 06:56:53;;;;;;;10.82;4.72;;;12.00;93.30;;;;;;5038197;28;20466;-84
2021/04/01 07:04:46;;;;;;;12.30;5.28;;;11.90;94.00;;;;;;5035286;28;20025;-84
2021/04/01 07:07:16;;;;;;;11.73;5.95;;;12.00;93.90;;;;;;5030665;28;20074;-84
2021/04/01 07:12:40;;;;;;;11.65;5.20;;;12.10;94.10;;;;;;5035532;28;20028;-83
2021/04/01 07:15:18;;;;;;;14.27;5.32;;;12.20;93.60;;;;;;5041802;28;20104;-84
2021/04/01 07:17:50;;;;;;;9.43;5.07;;;12.30;93.60;;;;;;5029323;28;20047;-83
2021/04/01 07:31:47;;;;;;;14.32;5.32;;;12.80;92.90;;;;;;5035611;28;20067;-85
2021/04/01 07:48:00;;;;;;;14.82;5.88;;;13.80;92.10;;;;;;5035549;28;20422;-84
2021/04/01 07:50:35;;;;;;;16.98;5.57;;;13.90;91.30;;;;;;5027610;28;20022;-85
2021/04/01 07:53:02;;;;;;;12.20;4.97;;;14.00;91.00;;;;;;5028923;28;20032;-86
2021/04/01 08:03:04;;;;;;;11.00;4.88;;;14.80;87.90;;;;;;5039271;28;20049;-85
2021/04/01 08:05:34;;;;;;;11.10;5.82;;;14.90;87.00;;;;;;5034577;28;20014;-84
2021/04/01 08:08:05;;;;;;;17.27;5.75;;;15.20;88.00;;;;;;5039193;28;20053;-84
2021/04/01 08:10:38;;;;;;;14.13;5.25;;;15.40;86.00;;;;;;5040104;28;20449;-84
2021/04/01 08:13:07;;;;;;;11.18;5.18;;;15.40;85.30;;;;;;5049197;28;20397;-83
2021/04/01 08:15:40;;;;;;;15.73;5.90;;;15.40;85.90;;;;;;5030844;28;20033;-83
2021/04/01 08:20:43;;;;;;;12.60;4.85;;;15.80;87.00;;;;;;5025652;28;20018;-83
2021/04/01 08:23:27;;;;;;;17.42;5.80;;;15.90;87.00;;;;;;5035482;28;20021;-89
2021/04/01 08:26:24;;;;;;;15.10;5.20;;;16.10;85.40;;;;;;5026238;28;20021;-87
2021/04/01 08:34:19;;;;;;;14.10;4.88;;;16.90;83.50;;;;;;5027341;28;20497;-88
2021/04/01 08:36:48;;;;;;;12.95;5.05;;;17.20;82.10;;;;;;5030519;28;20022;-90
2021/04/01 08:39:18;;;;;;;14.35;5.22;;;17.40;80.90;;;;;;5030187;28;20025;-88
2021/04/01 08:42:07;;;;;;;11.85;5.88;;;17.60;80.60;;;;;;5025788;28;20033;-88
2021/04/01 08:44:40;;;;;;;13.85;5.15;;;17.70;79.50;;;;;;5031344;28;20342;-89
2021/04/01 08:47:28;;;;;;;16.42;5.05;;;17.80;80.00;;;;;;5025611;28;20022;-90
2021/04/01 08:53:28;;;;;;;11.68;4.93;;;18.40;79.00;;;;;;5032810;28;20112;-88
2021/04/01 08:56:22;;;;;;;9.82;4.90;;;18.50;78.20;;;;;;5008735;28;20072;-88
2021/04/01 08:59:13;;;;;;;13.18;4.65;;;18.50;78.80;;;;;;5025956;28;20489;-89
2021/04/01 09:01:43;;;;;;;14.10;4.47;;;18.60;77.60;;;;;;5025750;28;20033;-88
2021/04/01 09:04:11;;;;;;;11.00;4.30;;;18.60;75.30;;;;;;5032207;28;20040;-88
2021/04/01 09:06:43;;;;;;;13.55;4.15;;;18.60;75.10;;;;;;5025588;28;20164;-87
2021/04/01 09:09:18;;;;;;;11.45;4.20;;;18.70;75.70;;;;;;5027767;28;20013;-89
2021/04/01 09:12:04;;;;;;;12.50;4.10;;;18.80;76.90;;;;;;5028113;28;20030;-88
2021/04/01 09:14:33;;;;;;;12.23;3.83;;;19.10;76.80;;;;;;5032751;28;20059;-88
2021/04/01 09:17:06;;;;;;;12.73;4.10;;;19.40;76.90;;;;;;5028231;28;20116;-89
2021/04/01 09:19:33;;;;;;;8.60;4.72;;;19.70;75.70;;;;;;5030386;28;20026;-88
2021/04/01 09:21:59;;;;;;;8.52;4.50;;;20.00;74.50;;;;;;5030159;28;20017;-88
2021/04/01 09:24:32;;;;;;;13.55;4.50;;;20.10;73.90;;;;;;5033070;28;20029;-89
2021/04/01 09:26:59;;;;;;;14.10;4.53;;;20.30;73.30;;;;;;5033268;28;20080;-89
2021/04/01 09:29:25;;;;;;;21.17;5.50;;;20.20;72.90;;;;;;5028741;28;20029;-88
2021/04/01 09:32:02;;;;;;;19.25;5.40;;;20.10;74.00;;;;;;5034579;28;20414;-88
2021/04/01 09:34:30;;;;;;;11.90;4.20;;;20.10;73.40;;;;;;5033134;28;20029;-88
2021/04/01 09:37:14;;;;;;;8.65;4.43;;;20.00;71.90;;;;;;5026380;28;20049;-89
2021/04/01 09:39:43;;;;;;;9.52;4.18;;;19.90;73.00;;;;;;5023915;28;20112;-88
2021/04/01 09:42:15;;;;;;;10.95;4.22;;;19.80;73.60;;;;;;5032604;28;20053;-89
2021/04/01 09:44:55;;;;;;;13.23;4.50;;;19.90;72.70;;;;;;5011233;28;20026;-89
2021/04/01 09:48:02;;;;;;;11.15;4.25;;;19.80;72.00;;;;;;5011435;28;20110;-89
2021/04/01 09:50:47;;;;;;;17.35;5.50;;;20.00;74.10;;;;;;5012103;28;20018;-88
2021/04/01 09:53:32;;;;;;;16.80;6.03;;;20.10;70.30;;;;;;5011509;28;20026;-89
2021/04/01 09:56:03;;;;;;;19.23;6.60;;;20.10;70.40;;;;;;5011693;28;20488;-89
2021/04/01 09:58:41;;;;;;;15.27;6.05;;;20.40;69.60;;;;;;5010729;28;20049;-89
2021/04/01 10:07:19;;;;;;;10.82;3.95;;;20.50;65.90;;;;;;5030864;28;20028;-88
2021/04/01 10:09:50;;;;;;;9.35;3.72;;;20.60;64.30;;;;;;5031253;28;20496;-89
2021/04/01 10:12:33;;;;;;;;;;;20.70;63.40;;;;;;5032136;28;20029;-90
2021/04/01 10:15:02;;;;;;;10.20;3.80;;;20.80;62.60;;;;;;5030595;28;19963;-90
2021/04/01 10:17:28;;;;;;;8.27;3.47;;;21.00;62.40;;;;;;5035318;28;20030;-91
2021/04/01 10:19:56;;;;;;;10.40;3.58;;;21.10;61.70;;;;;;5025770;28;20026;-90
2021/04/01 10:22:31;;;;;;;11.70;3.83;;;21.30;60.00;;;;;;5032501;28;20029;-90
2021/04/01 10:25:09;;;;;;;13.48;4.13;;;21.50;60.00;;;;;;5026749;28;20083;-92
2021/04/01 10:27:51;;;;;;;9.90;3.97;;;21.60;58.70;;;;;;5023514;28;20028;-91
2021/04/01 10:30:18;;;;;;;12.88;3.60;;;21.80;58.80;;;;;;5026490;28;20712;-92
2021/04/01 10:33:20;;;;;;;8.52;3.50;;;21.90;57.10;;;;;;5025204;28;20151;-90
2021/04/01 10:35:51;;;;;;;11.98;3.95;;;22.10;57.10;;;;;;5004219;28;20486;-89
2021/04/01 10:38:21;;;;;;;11.40;3.88;;;22.20;56.10;;;;;;5035110;28;20743;-91
2021/04/01 10:40:49;;;;;;;13.38;4.38;;;22.30;56.20;;;;;;5035575;28;20013;-91
2021/04/01 10:43:18;;;;;;;9.35;4.07;;;22.40;55.30;;;;;;5035641;28;20024;-91
2021/04/01 10:45:44;;;;;;;9.15;3.70;;;22.50;55.90;;;;;;5035029;28;20021;-91
2021/04/01 10:48:25;;;;;;;12.50;3.83;;;22.50;55.80;;;;;;5033930;28;20017;-91
2021/04/01 10:50:51;;;;;;;13.05;3.55;;;22.60;56.80;;;;;;5034336;28;20071;-91
2021/04/01 10:53:23;;;;;;;10.93;3.78;;;22.90;56.60;;;;;;5036232;28;20033;-92
2021/04/01 10:55:52;;;;;;;11.73;3.83;;;23.00;55.30;;;;;;5026123;28;20091;-91
2021/04/01 10:58:18;;;;;;;10.40;4.15;;;23.10;55.70;;;;;;5052360;28;20080;-88
2021/04/01 11:00:56;;;;;;;12.82;4.32;;;23.30;54.50;;;;;;5036318;28;20224;-91
2021/04/01 11:03:27;;;;;;;12.00;4.63;;;23.40;54.20;;;;;;5031562;28;20021;-92
2021/04/01 11:05:54;;;;;;;;;;;23.50;53.20;;;;;;5033914;28;20088;-91
2021/04/01 11:08:21;;;;;;;11.10;4.47;;;23.50;52.80;;;;;;5029973;28;19941;-91
2021/04/01 11:11:00;;;;;;;6.60;3.65;;;23.50;53.30;;;;;;5028888;28;20104;-91
2021/04/01 11:13:34;;;;;;;12.68;4.35;;;23.50;52.10;;;;;;5032445;28;20112;-93
2021/04/01 11:16:05;;;;;;;12.02;3.95;;;23.50;52.30;;;;;;5028214;28;20071;-92
2021/04/01 11:18:33;;;;;;;10.77;4.57;;;23.40;52.70;;;;;;5032630;28;20021;-92
2021/04/01 11:20:59;;;;;;;9.60;3.85;;;23.20;52.60;;;;;;5037458;28;20045;-91
2021/04/01 11:23:28;;;;;;;11.13;3.95;;;23.30;53.40;;;;;;5029540;28;20039;-92
2021/04/01 11:25:56;;;;;;;8.25;3.35;;;23.50;52.40;;;;;;5031896;28;20032;-91
2021/04/01 11:28:51;;;;;;;7.60;3.42;;;23.70;53.30;;;;;;5037226;28;20109;-92
2021/04/01 11:31:26;;;;;;;11.45;3.67;;;23.80;52.10;;;;;;5023106;28;20025;-91
2021/04/01 11:33:53;;;;;;;16.42;4.10;;;24.10;51.80;;;;;;5037472;28;20540;-91
2021/04/01 11:36:21;;;;;;;10.02;3.80;;;24.40;51.50;;;;;;5037061;28;20025;-92
2021/04/01 11:38:52;;;;;;;7.47;2.88;;;24.50;51.10;;;;;;5036816;28;20026;-92
2021/04/01 11:41:27;;;;;;;9.25;3.33;;;24.20;50.80;;;;;;5036394;28;20032;-91
2021/04/01 11:43:58;;;;;;;10.32;3.35;;;24.20;50.60;;;;;;5036504;28;20368;-90
2021/04/01 11:46:26;;;;;;;10.20;3.53;;;23.90;49.70;;;;;;5037201;28;20022;-91
2021/04/01 11:48:54;;;;;;;10.02;3.58;;;23.50;50.30;;;;;;5036947;28;20131;-90
2021/04/01 11:51:24;;;;;;;14.85;3.75;;;23.40;51.40;;;;;;5037810;28;20030;-92
2021/04/01 11:53:51;;;;;;;8.03;3.20;;;23.40;51.30;;;;;;5038204;28;20021;-91
2021/04/01 11:56:17;;;;;;;7.05;3.30;;;23.50;51.20;;;;;;5038243;28;20684;-90
2021/04/01 11:58:43;;;;;;;10.20;3.30;;;23.60;51.40;;;;;;5038136;28;20033;-89
2021/04/01 12:01:32;;;;;;;8.32;3.03;;;23.80;51.70;;;;;;5027805;28;20022;-90
2021/04/01 12:04:11;;;;;;;9.57;3.67;;;24.10;50.70;;;;;;5036183;28;20021;-89
2021/04/01 12:07:08;;;;;;;7.95;3.22;;;24.20;50.00;;;;;;5037655;28;20494;-91
2021/04/01 12:09:36;;;;;;;8.82;3.30;;;24.70;51.90;;;;;;5037908;28;20013;-89
2021/04/01 12:12:02;;;;;;;11.93;3.00;;;24.80;49.50;;;;;;5038207;28;20418;-90
2021/04/01 12:14:36;;;;;;;8.18;2.70;;;24.90;48.80;;;;;;5036094;28;20036;-90
2021/04/01 12:17:03;;;;;;;5.78;2.35;;;25.30;48.80;;;;;;5036640;28;20036;-91
2021/04/01 12:19:30;;;;;;;10.68;2.90;;;25.30;48.20;;;;;;5037970;28;20136;-90
2021/04/01 12:21:55;;;;;;;6.95;2.65;;;25.50;47.70;;;;;;5035433;28;20030;-91
2021/04/01 12:24:21;;;;;;;9.15;2.80;;;25.30;46.70;;;;;;5036518;28;20040;-90
2021/04/01 12:26:50;;;;;;;7.10;2.90;;;25.30;46.50;;;;;;5036580;28;20060;-90
2021/04/01 12:29:16;;;;;;;6.88;2.80;;;25.50;47.00;;;;;;5017740;28;20064;-89
2021/04/01 12:31:51;;;;;;;8.60;2.63;;;25.50;47.50;;;;;;5016633;28;20512;-89
2021/04/01 12:34:28;;;;;;;6.13;2.70;;;25.60;47.30;;;;;;5017348;28;20026;-89
2021/04/01 12:37:02;;;;;;;9.30;2.40;;;25.50;46.80;;;;;;5016336;28;20025;-89
2021/04/01 12:40:07;;;;;;;5.30;2.10;;;25.50;46.90;;;;;;5016327;28;20385;-90
2021/04/01 12:42:52;;;;;;;8.95;2.45;;;25.10;46.90;;;;;;5016278;28;20022;-89
2021/04/01 12:45:39;;;;;;;9.63;2.17;;;25.30;48.70;;;;;;5013535;28;20371;-90
2021/04/01 12:48:15;;;;;;;7.28;2.28;;;25.40;46.70;;;;;;5015675;28;20026;-89
2021/04/01 12:50:44;;;;;;;6.22;2.20;;;25.10;46.80;;;;;;5028263;28;20613;-90
2021/04/01 12:53:11;;;;;;;9.52;2.60;;;24.90;46.80;;;;;;5032805;28;20021;-90
2021/04/01 12:55:43;;;;;;;6.88;2.33;;;24.40;47.40;;;;;;5032280;28;20028;-90
2021/04/01 12:58:21;;;;;;;10.13;1.55;;;24.40;48.10;;;;;;5020354;28;20025;-89
2021/04/01 13:00:52;;;;;;;10.00;1.92;;;24.20;46.90;;;;;;5036520;28;20367;-90
2021/04/01 13:03:20;;;;;;;7.57;1.80;;;24.50;47.90;;;;;;5032775;28;20101;-92
2021/04/01 13:05:49;;;;;;;5.43;1.75;;;25.00;46.90;;;;;;5026956;28;20077;-92
2021/04/01 13:10:44;;;;;;;7.82;1.77;;;25.60;45.40;;;;;;5032447;28;20057;-91
2021/04/01 13:13:10;;;;;;;5.40;1.77;;;25.70;44.30;;;;;;5023200;28;20018;-91
2021/04/01 13:15:38;;;;;;;4.68;1.75;;;25.90;44.00;;;;;;5029541;28;20485;-93
2021/04/01 13:18:08;;;;;;;4.93;2.00;;;26.10;43.20;;;;;;5031042;28;20025;-92
2021/04/01 13:20:34;;;;;;;5.10;1.60;;;25.70;43.70;;;;;;5027502;28;20045;-93
2021/04/01 13:25:26;;;;;;;6.22;1.63;;;25.60;43.90;;;;;;5033429;28;20028;-91
2021/04/01 13:27:53;;;;;;;7.47;1.65;;;25.30;43.20;;;;;;5041255;28;20423;-93
2021/04/01 13:30:21;;;;;;;4.53;1.73;;;24.90;43.90;;;;;;5029256;28;20105;-92
2021/04/01 13:35:35;;;;;;;6.47;1.80;;;24.60;43.80;;;;;;5029787;28;20554;-90
2021/04/01 13:46:06;;;;;;;;;;;;;;;;;;;;;
2021/04/01 13:56:01;;;;;;;7.05;2.22;;;24.20;45.90;;;;;;4874420;29;20029;-90
2021/04/01 14:13:03;;;;;;;6.32;1.98;;;23.50;44.30;;;;;;5826566;23;20050;-93
2021/04/01 14:15:32;;;;;;;6.13;1.70;;;23.40;44.90;;;;;;5044048;28;20061;-95
2021/04/01 14:18:00;;;;;;;7.70;1.95;;;23.90;45.60;;;;;;5040440;28;20025;-95
2021/04/01 14:20:26;;;;;;;9.38;1.90;;;24.20;45.80;;;;;;5036484;28;20105;-93
2021/04/01 14:22:54;;;;;;;5.82;2.00;;;24.20;45.70;;;;;;5032120;28;20009;-92
2021/04/01 14:25:43;;;;;;;7.55;1.95;;;24.40;45.10;;;;;;5038799;28;20140;-93
2021/04/01 14:28:10;;;;;;;10.63;2.90;;;24.60;44.40;;;;;;5029920;28;20044;-94
2021/04/01 15:35:27;;;;;;;9.00;2.70;;;23.20;44.40;;;;;;5044699;28;20111;-94
2021/04/01 15:37:53;;;;;;;8.85;2.70;;;23.20;44.80;;;;;;5055051;28;20090;-92
2021/04/01 15:40:18;;;;;;;7.90;2.67;;;23.00;45.40;;;;;;5050548;28;20001;-92
2021/04/01 15:42:44;;;;;;;8.13;2.78;;;22.90;46.10;;;;;;5045308;28;20103;-91
2021/04/01 15:45:12;;;;;;;7.82;2.45;;;23.20;45.90;;;;;;5043324;28;20025;-90
2021/04/01 15:47:37;;;;;;;9.00;2.75;;;23.20;46.00;;;;;;5039063;28;20022;-92
2021/04/01 15:50:08;;;;;;;7.88;2.85;;;23.00;45.90;;;;;;5039083;28;20486;-92
2021/04/01 15:52:34;;;;;;;11.18;2.88;;;22.80;46.70;;;;;;5036320;28;20056;-93
2021/04/01 15:55:00;;;;;;;10.88;3.03;;;22.60;47.10;;;;;;5030823;28;20029;-87
2021/04/01 16:31:28;;;;;;;12.77;6.32;;;21.20;48.40;;;;;;5000939;28;20385;-91
2021/04/01 16:33:56;;;;;;;16.40;6.93;;;21.10;48.70;;;;;;5018015;28;20042;-91
2021/04/01 16:36:28;;;;;;;16.95;7.47;;;21.10;48.80;;;;;;4995624;28;20023;-91
2021/04/01 16:38:55;;;;;;;20.65;9.75;;;21.00;49.50;;;;;;4995438;28;20030;-93
2021/04/01 16:41:22;;;;;;;17.38;8.88;;;21.00;49.10;;;;;;4988258;28;20055;-92
2021/04/01 16:43:49;;;;;;;19.20;9.82;;;20.90;49.30;;;;;;4988679;28;20090;-92
2021/04/01 16:46:16;;;;;;;19.23;9.80;;;20.90;49.60;;;;;;5008378;28;20027;-92
2021/04/01 16:48:42;;;;;;;20.63;11.18;;;20.80;49.60;;;;;;4994974;28;20022;-92
2021/04/01 16:51:08;;;;;;;24.63;10.98;;;20.80;50.00;;;;;;5004023;28;20080;-92
2021/04/01 16:53:39;;;;;;;21.20;11.32;;;20.80;50.20;;;;;;4996600;28;20018;-91